Saturday, September 22, 2018, 9:15 AM EDT
Back to Local

KAFN, Jaffrey Muni-silver Ranch

Location: Jaffrey, NH, United States Lat: 42.8
Local Time: 9:15 AM EDT (13:15 GMT) Lon: -72
Time Zone: US/Eastern Elev: 1040 ft

Show me the last for .
Show Decoded

2018-09-22 08:52 METAR KAFN 221252Z AUTO VRB05KT 10SM FEW044 16/09 A3006 RMK AO2 SLP181 T01610094
                 =
2018-09-22 07:52 METAR KAFN 221152Z AUTO VRB05G18KT 10SM CLR 17/11 A3002 RMK AO2 SLP168 60001
                 70001 T01720106 10194 20172 53045 =
2018-09-22 06:52 METAR KAFN 221052Z AUTO VRB06G17KT 10SM CLR 17/11 A2997 RMK AO2 PRESRR SLP152
                 T01720111 =
2018-09-22 05:52 METAR KAFN 220952Z AUTO VRB04KT 10SM FEW029 19/17 A2991 RMK AO2 SLP132 T01890167
                 =
2018-09-22 05:19 METAR KAFN 220919Z AUTO 23007KT 200V260 10SM FEW019 SCT024 19/18 A2989 RMK AO2
                 T01940178 =
2018-09-22 05:00 METAR KAFN 220900Z AUTO 22003KT 10SM FEW009 SCT013 BKN019 19/19 A2988 RMK AO2
                 T01940189 =
2018-09-22 04:52 METAR KAFN 220852Z AUTO 23008KT 200V280 10SM BKN008 BKN015 BKN022 19/19 A2988
                 RMK AO2 CIG 007V011 SLP119 60001 T01940189 55002 =
2018-09-22 03:52 METAR KAFN 220752Z AUTO 20008G15KT 10SM BKN008 BKN012 OVC026 19/19 A2987 RMK AO2
                 RAE0654 CIG 005V010 SLP116 P0000 T01940189 =
2018-09-22 02:52 METAR KAFN 220652Z AUTO 21010G20KT 10SM -RA OVC007 19/19 A2986 RMK AO2 CIG
                 005V011 SLP113 P0001 T01940189 =
2018-09-22 01:52 METAR KAFN 220552Z AUTO 23007G17KT 10SM -RA OVC007 19/19 A2989 RMK AO2 RAB32
                 SLP122 P0000 60000 T01890189 10189 20172 55014 =
2018-09-22 00:52 METAR KAFN 220452Z AUTO 20014G27KT 5SM BR OVC006 19/19 A2989 RMK AO2 PK WND
                 18027/0451 SLP122 T01890189 401890139 =
2018-09-21 23:52 METAR KAFN 220352Z AUTO 21011G27KT 8SM OVC008 19/18 A2990 RMK AO2 PK WND
                 20027/0317 CIG 006V011 SLP129 T01890183 =
2018-09-21 22:52 METAR KAFN 220252Z AUTO 21011G22KT 4SM BR OVC006 18/18 A2993 RMK AO2 CIG 005V009
                 SLP138 T01830183 56014 =
2018-09-21 21:52 METAR KAFN 220152Z AUTO 20010G20KT 9SM OVC009 18/17 A2995 RMK AO2 SLP144
                 T01780172 =
2018-09-21 21:39 METAR KAFN 220139Z AUTO 20010G19KT 10SM OVC009 18/17 A2995 RMK AO2 T01780172 =
2018-09-21 20:52 METAR KAFN 220052Z AUTO 21011KT 180V240 10SM OVC011 18/16 A2996 RMK AO2 SLP147
                 T01780161 =
2018-09-21 19:52 METAR KAFN 212352Z AUTO 19008G15KT 10SM OVC013 17/16 A2997 RMK AO2 SLP154
                 T01720156 10178 20167 57027 =
2018-09-21 19:19 METAR KAFN 212319Z AUTO 20011G18KT 10SM OVC014 17/16 A2999 RMK AO2 T01720156 =
2018-09-21 18:52 METAR KAFN 212252Z AUTO 19009G18KT 10SM OVC016 17/15 A3000 RMK AO2 SLP164
                 T01720150 =
2018-09-21 17:52 METAR KAFN 212152Z AUTO 20010G17KT 10SM OVC019 18/15 A3003 RMK AO2 SLP171
                 T01780150 =
2018-09-21 16:52 METAR KAFN 212052Z AUTO 20009KT 10SM OVC018 18/15 A3006 RMK AO2 SLP181 T01780150
                 56028 =
2018-09-21 15:52 METAR KAFN 211952Z AUTO 21011G17KT 10SM OVC019 18/14 A3009 RMK AO2 SLP191
                 T01780144 =
2018-09-21 14:52 METAR KAFN 211852Z AUTO 17009G16KT 10SM OVC018 18/14 A3011 RMK AO2 SLP199
                 T01780144 =
2018-09-21 13:52 METAR KAFN 211752Z AUTO 18009KT 10SM OVC018 17/14 A3014 RMK AO2 SLP212 T01670139
                 10167 20139 58028 =
2018-09-21 12:52 METAR KAFN 211652Z AUTO 18010G17KT 10SM BKN019 OVC024 17/13 A3018 RMK AO2 SLP225
                 T01670133 =
2018-09-21 11:52 METAR KAFN 211552Z AUTO 17006KT 10SM OVC020 16/13 A3021 RMK AO2 SLP234 T01560128
                 =
2018-09-21 10:52 METAR KAFN 211452Z AUTO 16009G16KT 10SM OVC020 15/12 A3023 RMK AO2 SLP243
                 T01500122 58021 =
2018-09-21 09:52 METAR KAFN 211352Z AUTO VRB06KT 10SM OVC023 14/12 A3026 RMK AO2 SLP253 T01440122
                 =

Support USWX by starting your Amazon purchase here.